Pagrindinis puslapis
METAR-TAF:

METAR-TAF

Oro uostai :

Solnokas, Vengrija

platuma: 47-07N, ilguma: 020-14E, Aukštis: 89 m

Dabartinis oras

Ataskaita buvo paskelbta 30 minutes, ne 03:45 UTC
Vėjas 8 kt iš Šiaurės Vakarų
Temperatūra 11°C
Drėgmė 82%
Slėgis 1019 hPa
Matomumas 10 km arba daugiau
nėra debesų žemiau 1500 m ir nėra kamuolinių lietaus debesų

METAR: LHSN 290345Z 31008KT CAVOK 11/08 Q1019 NOSIG RMK BLU

Laikas: 06:15 (04:15 UTC)

Prognozė

Ataskaita buvo paskelbta 2 valandos ir 0 minutes, ne 02:15 UTC
Prognozė galioja nuo 29 metu 03 UTC su 29 metu 12 UTC
Vėjas 6 kt iš Šiaurės
Matomumas 10 km arba daugiau
nėra debesų žemiau 1500 m ir nėra kamuolinių lietaus debesų
Tapsmas
nuo 29 metu 07 UTC su 29 metu 10 UTC
Vėjas 12 kt iš Šiaurės su gūsio iki 22 kt
Mažai debesys ne aukštis 4500 ft, aukštai iškilę kamuoliniai debesys.
Išsisklaidę debesys ne aukštis 6000 ft
Išsisklaidę debesys ne aukštis 8300 ft

TAF: LHSN 290215Z 2903/2912 35006KT CAVOK BECMG 2907/2910 36012G22KT FEW045TCU SCT060 SCT083

Orai ataskaitas ir orų prognozės (METAR, TAF).

turimą stotys yra geltonos ir raudonos taškus žemėlapyje.

Perkelti pele per norėdami pamatyti stoties vardą.

Tada spustelėkite, norėdami matyti oro stebėjimo ir prognozės.

Norėdami pakeisti žemėlapį: spustelėkite ant žalios mygtukų su juodo kryžiaus žemyn,; žalią mygtuką su brūkšneliu, jei norite nutolinti; arba žalių rodyklių gretimoms žemėlapius.


METAR-TAF: